Time;durP1;ratioP1;P1;durP2;ratioP2;P2;SDS_P1;SDS_P2;PMS_P1;PMS_P2;Temp;Humidity;BMP_temperature;BMP_pressure;BME280_temperature;BME280_humidity;BME280_pressure;Samples;Min_cycle;Max_cycle;Signal;HPM_P1;HPM_P2
2020/12/16 00:00:09;;;;;;;16.13;13.03;;;;;;;9.10;84.54;100899.16;5052830;28;20657;-66
2020/12/16 00:02:36;;;;;;;18.83;13.00;;;;;;;9.10;84.38;100904.47;5052056;28;20229;-66
2020/12/16 00:05:03;;;;;;;16.13;12.73;;;;;;;9.09;84.22;100898.31;5057083;28;20633;-66
2020/12/16 00:07:30;;;;;;;18.30;14.00;;;;;;;9.10;84.75;100904.47;5052709;28;20232;-66
2020/12/16 00:09:56;;;;;;;17.80;14.07;;;;;;;9.10;84.62;100907.13;5052665;28;20212;-66
2020/12/16 00:12:22;;;;;;;17.03;13.90;;;;;;;9.09;84.65;100913.38;5051100;28;20237;-66
2020/12/16 00:14:48;;;;;;;20.60;14.97;;;;;;;9.09;84.86;100908.06;5051854;28;20661;-66
2020/12/16 00:17:16;;;;;;;17.73;14.27;;;;;;;9.08;84.66;100912.53;5051621;28;20229;-66
2020/12/16 00:19:43;;;;;;;18.47;14.60;;;;;;;9.09;84.44;100916.03;5060971;28;20234;-66
2020/12/16 00:22:10;;;;;;;19.83;15.53;;;;;;;9.08;84.05;100915.19;5070800;28;20591;-66
2020/12/16 00:24:36;;;;;;;18.33;15.50;;;;;;;9.07;84.40;100913.47;5061660;28;20593;-66
2020/12/16 00:27:02;;;;;;;21.53;16.93;;;;;;;9.07;84.68;100915.25;5052011;28;20212;-66
2020/12/16 00:29:28;;;;;;;21.03;16.27;;;;;;;9.08;84.47;100920.50;5058602;28;20201;-66
2020/12/16 00:31:54;;;;;;;23.47;17.30;;;;;;;9.06;84.61;100917.06;5051664;28;20308;-66
2020/12/16 00:34:22;;;;;;;20.77;15.73;;;;;;;9.06;84.63;100919.72;5066021;28;20266;-66
2020/12/16 00:36:48;;;;;;;19.43;15.70;;;;;;;9.05;84.74;100916.19;5055066;28;20621;-66
2020/12/16 00:39:14;;;;;;;23.33;16.60;;;;;;;9.05;84.26;100924.16;5057365;28;20659;-66
2020/12/16 00:41:40;;;;;;;21.83;15.53;;;;;;;9.04;83.96;100914.47;5059420;28;20229;-66
2020/12/16 00:44:06;;;;;;;22.40;15.67;;;;;;;9.04;84.12;100917.13;5057407;28;20202;-66
2020/12/16 00:46:32;;;;;;;19.33;15.27;;;;;;;9.03;84.38;100911.91;5057472;28;20571;-66
2020/12/16 00:48:59;;;;;;;19.10;15.50;;;;;;;9.03;84.70;100904.78;5060980;28;20251;-66
2020/12/16 00:51:26;;;;;;;21.17;15.53;;;;;;;9.02;84.73;100910.19;5052957;28;20668;-66
2020/12/16 00:53:52;;;;;;;16.53;13.80;;;;;;;9.02;84.20;100912.84;5060311;28;20701;-66
2020/12/16 00:56:18;;;;;;;18.50;14.63;;;;;;;9.00;84.59;100915.56;5056197;28;20568;-66
2020/12/16 00:58:44;;;;;;;19.57;14.50;;;;;;;8.99;84.30;100916.50;5056275;28;20202;-66
2020/12/16 01:01:10;;;;;;;23.87;16.47;;;;;;;8.98;84.63;100921.91;5059238;28;20713;-66
2020/12/16 01:03:36;;;;;;;21.20;15.53;;;;;;;8.98;84.15;100932.53;5058539;28;20236;-66
2020/12/16 01:06:02;;;;;;;20.80;15.13;;;;;;;8.97;83.80;100929.00;5059404;28;20205;-66
2020/12/16 01:08:29;;;;;;;23.87;16.73;;;;;;;8.97;83.98;100934.31;5055563;28;20289;-66
2020/12/16 01:10:56;;;;;;;25.27;16.87;;;;;;;8.96;83.79;100931.75;5054745;28;20396;-66
2020/12/16 01:13:22;;;;;;;23.87;15.70;;;;;;;8.95;84.23;100938.88;5067063;28;20246;-66
2020/12/16 01:15:48;;;;;;;25.93;17.20;;;;;;;8.96;84.18;100937.06;5066748;28;20209;-66
2020/12/16 01:18:14;;;;;;;21.93;16.80;;;;;;;8.95;83.92;100933.56;5054646;28;20701;-66
2020/12/16 01:20:40;;;;;;;24.77;16.37;;;;;;;8.94;83.95;100939.81;5055248;28;20205;-66
2020/12/16 01:23:06;;;;;;;22.90;16.60;;;;;;;8.95;84.13;100952.16;5055251;28;20300;-65
2020/12/16 01:25:33;;;;;;;22.07;16.33;;;;;;;8.93;84.29;100946.06;5055237;28;20622;-65
2020/12/16 01:28:01;;;;;;;26.53;17.57;;;;;;;8.93;84.30;100951.38;5055112;28;20251;-66
2020/12/16 01:30:28;;;;;;;25.47;17.13;;;;;;;8.93;84.74;100956.69;5055389;28;20212;-66
2020/12/16 01:32:55;;;;;;;21.93;16.17;;;;;;;8.92;84.76;100956.78;5054318;28;20233;-65
2020/12/16 01:35:21;;;;;;;22.33;15.60;;;;;;;8.90;83.93;100959.50;5055245;28;20217;-66
2020/12/16 01:37:47;;;;;;;21.37;16.13;;;;;;;8.91;84.86;100961.22;5055007;28;20235;-66
2020/12/16 01:40:13;;;;;;;26.77;17.63;;;;;;;8.90;84.87;100951.53;5055112;28;20251;-66
2020/12/16 01:42:41;;;;;;;24.23;15.97;;;;;;;8.91;84.89;100958.56;5054682;28;20312;-66
2020/12/16 01:45:09;;;;;;;24.30;16.53;;;;;;;8.90;84.41;100959.50;5055145;28;20205;-66
2020/12/16 01:47:36;;;;;;;24.10;15.57;;;;;;;8.89;84.91;100955.13;5055016;28;20201;-66
2020/12/16 01:50:04;;;;;;;26.53;16.73;;;;;;;8.89;84.50;100957.78;5053604;28;20197;-67
2020/12/16 01:52:32;;;;;;;24.40;16.60;;;;;;;8.89;84.25;100960.44;5054139;28;20229;-66
2020/12/16 01:54:59;;;;;;;26.70;17.83;;;;;;;8.89;84.16;100960.44;5058497;28;20265;-66
2020/12/16 01:57:26;;;;;;;24.97;16.50;;;;;;;8.89;84.49;100963.09;5055279;28;20257;-66
2020/12/16 01:59:53;;;;;;;26.90;16.37;;;;;;;8.88;84.36;100964.03;5054686;28;20284;-66
2020/12/16 02:02:20;;;;;;;26.07;17.57;;;;;;;8.89;84.94;100956.94;5054034;28;20308;-66
2020/12/16 02:04:49;;;;;;;27.23;17.43;;;;;;;8.88;84.50;100952.56;5055044;28;20296;-66
2020/12/16 02:07:15;;;;;;;29.33;18.47;;;;;;;8.88;84.52;100957.88;5054292;28;20205;-66
2020/12/16 02:09:43;;;;;;;27.90;17.83;;;;;;;8.88;84.61;100963.19;5054808;28;20288;-66
2020/12/16 02:12:15;;;;;;;25.90;16.57;;;;;;;8.87;84.36;100966.75;5053401;28;20225;-66
2020/12/16 02:14:42;;;;;;;23.40;16.03;;;;;;;8.84;84.34;100973.09;5059356;28;20197;-66
2020/12/16 02:17:10;;;;;;;23.70;16.03;;;;;;;8.81;84.54;100969.72;5058527;28;20696;-66
2020/12/16 02:19:39;;;;;;;20.87;14.50;;;;;;;8.79;84.56;100968.94;5053996;28;20202;-66
2020/12/16 02:22:06;;;;;;;26.60;14.90;;;;;;;8.76;84.05;100951.41;5056272;28;20663;-65
2020/12/16 02:24:32;;;;;;;25.83;15.73;;;;;;;8.73;84.04;100959.50;5055696;28;20202;-66
2020/12/16 02:26:59;;;;;;;20.97;14.63;;;;;;;8.72;84.62;100964.91;5054240;28;20206;-66
2020/12/16 02:29:27;;;;;;;22.43;15.03;;;;;;;8.69;84.91;100958.81;5053741;28;20266;-66
2020/12/16 02:31:55;;;;;;;23.17;15.73;;;;;;;8.69;84.55;100971.22;5053812;28;20585;-66
2020/12/16 02:34:21;;;;;;;24.30;15.10;;;;;;;8.67;84.22;100975.75;5053455;28;20209;-65
2020/12/16 02:36:47;;;;;;;23.40;14.83;;;;;;;8.68;85.07;100980.13;5053842;28;20282;-66
2020/12/16 02:39:13;;;;;;;22.43;15.67;;;;;;;8.67;84.29;100981.06;5054048;28;20205;-66
2020/12/16 02:41:39;;;;;;;22.30;14.37;;;;;;;8.68;85.12;100977.47;5052525;28;20270;-66
2020/12/16 02:44:06;;;;;;;20.73;13.83;;;;;;;8.66;85.07;100979.34;5054002;28;20262;-66
2020/12/16 02:46:32;;;;;;;19.57;14.30;;;;;;;8.65;85.08;100982.91;5053241;28;20205;-66
2020/12/16 02:48:58;;;;;;;18.87;14.67;;;;;;;8.65;85.10;100980.25;5053647;28;20666;-66
2020/12/16 02:51:24;;;;;;;21.37;14.80;;;;;;;8.66;84.87;100985.50;5077159;22;20701;-65
2020/12/16 02:53:50;;;;;;;22.77;15.00;;;;;;;8.65;84.49;100989.09;5070943;28;20672;-66
2020/12/16 02:56:16;;;;;;;21.80;13.93;;;;;;;8.66;85.08;100992.59;5066285;28;20566;-66
2020/12/16 02:58:46;;;;;;;21.70;15.27;;;;;;;8.65;85.20;100993.53;5049177;28;20224;-66
2020/12/16 03:01:13;;;;;;;22.27;14.80;;;;;;;8.64;84.98;100984.72;5044207;28;20212;-67
2020/12/16 03:03:39;;;;;;;21.40;14.33;;;;;;;8.64;84.66;100982.06;5051724;28;20201;-66
2020/12/16 03:06:05;;;;;;;22.43;14.50;;;;;;;8.64;84.89;100978.53;5052983;28;20575;-66
2020/12/16 03:08:31;;;;;;;18.50;13.03;;;;;;;8.63;84.99;100982.13;5040474;28;20206;-66
2020/12/16 03:10:57;;;;;;;21.17;14.63;;;;;;;8.61;85.04;100984.88;5051357;28;20201;-66
2020/12/16 03:13:23;;;;;;;20.97;13.17;;;;;;;8.59;84.41;100984.09;5046702;28;20628;-65
2020/12/16 03:15:49;;;;;;;19.20;13.33;;;;;;;8.58;84.98;100985.03;5050590;28;20746;-67
2020/12/16 03:18:16;;;;;;;19.23;13.73;;;;;;;8.57;84.21;100985.97;5044761;28;20603;-67
2020/12/16 03:20:43;;;;;;;15.63;12.33;;;;;;;8.56;85.16;100984.25;5052559;28;20209;-66
2020/12/16 03:23:09;;;;;;;23.17;14.73;;;;;;;8.56;85.02;100988.72;5050536;28;20679;-66
2020/12/16 03:25:35;;;;;;;19.73;13.90;;;;;;;8.54;84.96;100987.91;5047523;28;20217;-66
2020/12/16 03:28:01;;;;;;;22.17;15.20;;;;;;;8.53;84.63;100995.03;5050707;28;20250;-66
2020/12/16 03:30:27;;;;;;;23.93;16.27;;;;;;;8.52;84.94;100990.66;5041787;28;20216;-66
2020/12/16 03:32:54;;;;;;;23.50;15.63;;;;;;;8.51;84.53;100990.72;5051500;28;20228;-66
2020/12/16 03:35:21;;;;;;;26.47;16.70;;;;;;;8.50;84.62;100994.31;5048609;28;20638;-66
2020/12/16 03:37:47;;;;;;;21.70;15.77;;;;;;;8.50;85.14;100995.16;5052378;28;20233;-66
2020/12/16 03:40:14;;;;;;;20.40;14.87;;;;;;;8.50;84.80;100995.16;5047393;28;20260;-67
2020/12/16 03:42:41;;;;;;;21.23;15.40;;;;;;;8.49;84.79;101001.41;5032710;28;20240;-66
2020/12/16 03:45:07;;;;;;;26.10;16.80;;;;;;;8.48;85.22;100999.69;5051726;28;20206;-66
2020/12/16 03:47:33;;;;;;;23.33;15.43;;;;;;;8.49;84.89;101005.84;5043119;28;20206;-66
2020/12/16 03:49:59;;;;;;;23.30;15.83;;;;;;;8.50;84.67;101002.28;5045807;28;20707;-66
2020/12/16 03:52:26;;;;;;;22.13;15.37;;;;;;;8.49;84.99;100997.91;5031013;28;20240;-67
2020/12/16 03:54:52;;;;;;;23.50;15.20;;;;;;;8.49;84.92;100996.09;5031546;28;20588;-67
2020/12/16 03:57:18;;;;;;;20.37;14.97;;;;;;;8.50;84.66;101011.09;5036911;28;20717;-66
2020/12/16 03:59:44;;;;;;;22.23;15.23;;;;;;;8.49;85.00;101005.84;5039149;28;20441;-66
2020/12/16 04:02:10;;;;;;;23.73;15.13;;;;;;;8.46;84.50;100998.91;5035914;28;20271;-65
2020/12/16 04:04:36;;;;;;;20.00;13.87;;;;;;;8.45;85.00;100998.97;5049487;28;20437;-66
2020/12/16 04:07:02;;;;;;;20.70;13.33;;;;;;;8.39;85.00;101010.78;5048556;28;20213;-66
2020/12/16 04:09:29;;;;;;;18.80;12.77;;;;;;;8.32;84.42;101009.34;5034314;28;20210;-67
2020/12/16 04:11:55;;;;;;;19.33;12.53;;;;;;;8.26;84.20;101009.59;5037297;28;20663;-66
2020/12/16 04:14:22;;;;;;;17.43;12.97;;;;;;;8.19;84.10;101022.31;5031617;28;20210;-66
2020/12/16 04:16:48;;;;;;;15.87;11.77;;;;;;;8.13;84.40;101022.59;5043954;28;20254;-65
2020/12/16 04:19:15;;;;;;;15.37;11.87;;;;;;;8.09;84.11;101028.97;5050737;28;20641;-65
2020/12/16 04:21:41;;;;;;;17.27;12.30;;;;;;;8.05;84.56;101027.41;5041284;28;20236;-64
2020/12/16 04:24:07;;;;;;;16.93;11.87;;;;;;;8.03;83.82;101037.22;5035002;28;20206;-65
2020/12/16 04:26:34;;;;;;;16.00;11.37;;;;;;;7.97;83.56;101032.19;5033426;28;20272;-65
2020/12/16 04:29:00;;;;;;;16.07;11.53;;;;;;;7.90;83.71;101044.00;5031399;28;20601;-65
2020/12/16 04:31:26;;;;;;;16.63;10.67;;;;;;;7.81;83.41;101040.00;5050491;28;20279;-64
2020/12/16 04:33:52;;;;;;;13.23;10.93;;;;;;;7.69;83.54;101039.69;5051379;28;20622;-65
2020/12/16 04:36:18;;;;;;;13.97;10.63;;;;;;;7.59;83.33;101039.25;5035301;28;20721;-65
2020/12/16 04:38:44;;;;;;;14.47;10.73;;;;;;;7.51;83.56;101034.31;5051253;28;20233;-65
2020/12/16 04:41:12;;;;;;;15.50;11.00;;;;;;;7.46;83.71;101036.28;5036373;28;20256;-65
2020/12/16 04:43:42;;;;;;;13.93;10.97;;;;;;;7.43;83.33;101032.91;5031154;28;20215;-65
2020/12/16 04:46:09;;;;;;;12.50;10.47;;;;;;;7.40;83.08;101039.19;5041327;28;20559;-63
2020/12/16 04:48:35;;;;;;;13.93;10.73;;;;;;;7.36;82.95;101032.31;5050801;28;20232;-65
2020/12/16 04:51:01;;;;;;;14.87;10.20;;;;;;;7.31;83.15;101045.78;5038915;28;20221;-66
2020/12/16 04:53:28;;;;;;;15.13;11.43;;;;;;;7.26;83.35;101052.19;5031381;28;20209;-65
2020/12/16 04:55:58;;;;;;;17.30;10.93;;;;;;;7.20;82.99;101060.38;5050738;28;20205;-66
2020/12/16 04:58:24;;;;;;;12.70;10.57;;;;;;;7.16;83.39;101064.97;5033522;28;20239;-65
2020/12/16 05:00:51;;;;;;;15.27;10.90;;;;;;;7.13;82.92;101069.53;5047261;28;20209;-66
2020/12/16 05:03:17;;;;;;;14.13;11.03;;;;;;;7.10;83.20;101073.19;5045292;28;20293;-66
2020/12/16 05:05:43;;;;;;;16.93;12.43;;;;;;;7.05;82.69;101075.16;5050037;28;20211;-65
2020/12/16 05:08:11;;;;;;;18.60;12.70;;;;;;;7.01;83.26;101080.63;5049733;28;20205;-66
2020/12/16 05:10:39;;;;;;;17.50;12.13;;;;;;;6.95;82.68;101072.03;5048694;28;20200;-65
2020/12/16 05:13:07;;;;;;;15.27;11.40;;;;;;;6.91;83.11;101074.88;5039585;28;20213;-66
2020/12/16 05:15:33;;;;;;;14.73;11.60;;;;;;;6.86;82.29;101075.06;5045443;28;20247;-65
2020/12/16 05:18:21;;;;;;;18.90;12.60;;;;;;;6.83;83.06;101063.72;5050092;28;20225;-66
2020/12/16 05:20:50;;;;;;;19.50;13.90;;;;;;;6.80;83.00;101074.47;5045868;28;20633;-66
2020/12/16 05:23:17;;;;;;;17.30;13.80;;;;;;;6.77;82.28;101066.66;5049613;28;20218;-66
2020/12/16 05:25:57;;;;;;;18.30;12.63;;;;;;;6.71;83.14;101078.34;5036371;28;20240;-65
2020/12/16 05:28:27;;;;;;;17.20;12.17;;;;;;;6.68;83.27;101072.28;5042492;28;20579;-65
2020/12/16 05:30:54;;;;;;;16.43;11.80;;;;;;;6.64;82.85;101079.50;5034440;28;20592;-67
2020/12/16 05:33:21;;;;;;;17.40;13.10;;;;;;;6.60;83.55;101072.63;5045354;28;20236;-66
2020/12/16 05:35:51;;;;;;;14.67;11.00;;;;;;;6.54;83.05;101072.84;5048022;28;20658;-66
2020/12/16 05:38:17;;;;;;;15.70;10.67;;;;;;;6.48;82.83;101081.88;5042998;28;20224;-66
2020/12/16 05:40:43;;;;;;;16.83;11.43;;;;;;;6.44;83.24;101084.75;5050761;28;20202;-67
2020/12/16 05:43:20;;;;;;;15.90;11.80;;;;;;;6.39;82.73;101081.41;5041075;28;20222;-67
2020/12/16 05:45:46;;;;;;;12.93;10.37;;;;;;;6.35;82.95;101082.44;5050654;28;20262;-66
2020/12/16 05:48:12;;;;;;;13.70;10.47;;;;;;;6.30;82.99;101093.19;5036761;28;20716;-65
2020/12/16 05:50:44;;;;;;;16.10;12.00;;;;;;;6.25;82.77;101100.47;5043535;28;20662;-65
2020/12/16 05:53:16;;;;;;;14.73;11.60;;;;;;;6.19;82.72;101093.63;5043281;28;20241;-65
2020/12/16 05:55:43;;;;;;;19.33;12.73;;;;;;;6.16;83.08;101095.50;5053315;28;20215;-65
2020/12/16 05:58:11;;;;;;;27.77;16.83;;;;;;;6.14;82.65;101095.56;5046440;28;20225;-66
2020/12/16 06:00:48;;;;;;;19.43;13.20;;;;;;;6.11;82.76;101089.53;5034284;28;20210;-65
2020/12/16 06:03:22;;;;;;;13.40;10.37;;;;;;;6.05;82.60;101092.41;5032353;28;20768;-65
2020/12/16 06:05:53;;;;;;;15.60;12.47;;;;;;;5.92;82.53;101086.72;5044734;28;20202;-65
2020/12/16 06:08:20;;;;;;;20.73;14.20;;;;;;;5.77;82.28;101081.97;5033912;28;20301;-66
2020/12/16 06:10:48;;;;;;;20.20;13.27;;;;;;;5.66;82.44;101078.84;5033038;28;20206;-65
2020/12/16 06:13:15;;;;;;;21.93;14.63;;;;;;;5.58;82.74;101069.41;5034439;28;20226;-66
2020/12/16 06:15:59;;;;;;;30.60;16.17;;;;;;;5.54;83.15;101070.47;5037021;28;20255;-66
2020/12/16 06:18:28;;;;;;;28.30;17.03;;;;;;;5.53;83.43;101074.03;5050889;28;20771;-66
2020/12/16 06:20:56;;;;;;;29.63;18.67;;;;;;;5.54;83.74;101070.47;5053868;28;20274;-65
2020/12/16 06:23:25;;;;;;;32.40;18.73;;;;;;;5.56;83.84;101073.88;5045703;28;20240;-66
2020/12/16 06:25:53;;;;;;;20.03;15.20;;;;;;;5.59;83.88;101072.91;5035004;28;20210;-66
2020/12/16 06:28:20;;;;;;;16.63;12.63;;;;;;;5.52;84.04;101077.59;5045913;28;20202;-66
2020/12/16 06:31:00;;;;;;;16.53;12.70;;;;;;;5.40;83.68;101082.41;5047853;28;20212;-65
2020/12/16 06:33:47;;;;;;;22.57;13.63;;;;;;;5.27;83.85;101083.75;5050623;28;20205;-65
2020/12/16 06:36:14;;;;;;;19.63;13.77;;;;;;;5.22;83.97;101081.28;5050727;28;20251;-66
2020/12/16 06:38:43;;;;;;;21.73;14.80;;;;;;;5.16;83.99;101076.22;5033595;28;20236;-65
2020/12/16 06:41:22;;;;;;;26.30;16.53;;;;;;;5.11;83.95;101086.06;5048160;28;20210;-65
2020/12/16 06:43:49;;;;;;;21.80;15.10;;;;;;;5.08;84.46;101084.41;5046840;28;20201;-65
2020/12/16 06:46:46;;;;;;;22.87;14.70;;;;;;;5.04;84.35;101088.03;5033394;28;20210;-65
2020/12/16 06:49:38;;;;;;;20.33;13.47;;;;;;;5.00;84.48;101094.38;5037624;28;20202;-67
2020/12/16 06:52:07;;;;;;;19.23;13.73;;;;;;;4.98;84.36;101090.91;5044154;28;20244;-67
2020/12/16 06:54:52;;;;;;;18.00;13.13;;;;;;;4.94;84.40;101099.84;5049441;28;20205;-67
2020/12/16 06:57:20;;;;;;;16.63;12.30;;;;;;;4.85;84.16;101103.63;5039854;28;20232;-68
2020/12/16 06:59:58;;;;;;;17.77;13.13;;;;;;;4.76;84.33;101101.28;5050041;28;20278;-67
2020/12/16 07:02:27;;;;;;;17.67;12.70;;;;;;;4.69;84.46;101099.75;5038865;28;20322;-67
2020/12/16 07:04:54;;;;;;;20.57;13.93;;;;;;;4.63;84.39;101099.97;5044242;28;20206;-67
2020/12/16 07:07:44;;;;;;;20.80;14.50;;;;;;;4.61;84.29;101101.78;5050841;28;20202;-67
2020/12/16 07:10:49;;;;;;;23.47;16.27;;;;;;;4.61;84.66;101093.88;5040716;28;20225;-67
2020/12/16 07:13:40;;;;;;;20.30;14.47;;;;;;;4.62;84.28;101095.59;5041714;28;20275;-67
2020/12/16 07:16:10;;;;;;;24.13;15.03;;;;;;;4.63;84.47;101107.03;5022045;28;20254;-67
2020/12/16 07:18:42;;;;;;;24.90;15.90;;;;;;;4.67;84.58;101122.69;5041434;28;20774;-67
2020/12/16 07:21:20;;;;;;;22.10;15.03;;;;;;;4.70;85.01;101124.38;5040994;28;20267;-65
2020/12/16 07:23:51;;;;;;;22.90;15.40;;;;;;;4.72;85.38;101123.41;5040322;28;20205;-66
2020/12/16 07:26:19;;;;;;;26.77;17.53;;;;;;;4.74;85.71;101124.22;5047037;28;20677;-65
2020/12/16 07:28:45;;;;;;;26.13;16.07;;;;;;;4.78;85.30;101120.59;5050178;28;20582;-66
2020/12/16 07:31:12;;;;;;;27.90;14.93;;;;;;;4.78;85.40;101120.59;5037814;28;20217;-66
2020/12/16 07:33:39;;;;;;;19.60;13.33;;;;;;;4.70;85.17;101117.31;5044174;28;20205;-66
2020/12/16 07:36:06;;;;;;;21.17;13.53;;;;;;;4.59;85.36;101119.44;5045852;28;20212;-65
2020/12/16 07:38:32;;;;;;;18.97;13.00;;;;;;;4.51;85.01;101124.94;5046161;28;20271;-65
2020/12/16 07:40:59;;;;;;;22.03;14.33;;;;;;;4.44;85.31;101128.69;5047196;28;20255;-65
2020/12/16 07:43:26;;;;;;;22.97;14.60;;;;;;;4.43;85.66;101132.25;5044514;28;20290;-65
2020/12/16 07:46:02;;;;;;;25.20;15.43;;;;;;;4.44;85.49;101136.59;5043727;28;20210;-65
2020/12/16 07:48:29;;;;;;;27.77;16.23;;;;;;;4.46;85.29;101139.19;5050513;28;20205;-65
2020/12/16 07:51:03;;;;;;;28.63;16.87;;;;;;;4.48;85.54;101134.72;5049222;28;20253;-65
2020/12/16 07:53:29;;;;;;;24.50;15.47;;;;;;;4.49;85.54;101137.31;5044692;28;20204;-65
2020/12/16 07:56:00;;;;;;;15.30;12.53;;;;;;;4.47;85.59;101138.28;5044306;28;20204;-66
2020/12/16 07:58:26;;;;;;;20.23;14.17;;;;;;;4.38;85.38;101138.56;5048151;28;20230;-66
2020/12/16 08:00:52;;;;;;;19.70;14.43;;;;;;;4.31;85.34;101139.63;5048386;28;20202;-65
2020/12/16 08:03:19;;;;;;;18.63;12.77;;;;;;;4.26;85.65;101147.69;5047814;28;20225;-66
2020/12/16 08:05:57;;;;;;;21.97;15.00;;;;;;;4.27;85.84;101149.44;5046202;28;20201;-63
2020/12/16 08:08:23;;;;;;;22.70;14.90;;;;;;;4.29;85.82;101144.13;5043723;28;20239;-65
2020/12/16 08:10:49;;;;;;;23.33;15.83;;;;;;;4.31;85.51;101153.69;5047454;28;20216;-66
2020/12/16 08:13:20;;;;;;;21.40;15.47;;;;;;;4.32;86.10;101162.47;5039012;28;20233;-65
2020/12/16 08:15:46;;;;;;;20.10;14.10;;;;;;;4.31;86.15;101155.44;5031759;28;20213;-66
2020/12/16 08:18:15;;;;;;;19.90;14.13;;;;;;;4.33;86.05;101158.91;5038105;28;20580;-65
2020/12/16 08:20:42;;;;;;;22.07;15.00;;;;;;;4.36;85.82;101158.81;5037617;28;20201;-65
2020/12/16 08:23:11;;;;;;;21.70;14.90;;;;;;;4.39;86.21;101162.25;5031817;28;20229;-65
2020/12/16 08:25:37;;;;;;;20.23;14.13;;;;;;;4.44;86.26;101162.13;5039476;28;20202;-65
2020/12/16 08:28:04;;;;;;;18.50;13.93;;;;;;;4.49;86.17;101160.19;5038356;28;20198;-65
2020/12/16 08:30:32;;;;;;;24.20;16.03;;;;;;;4.55;86.57;101160.00;5050996;28;20255;-65
2020/12/16 08:33:01;;;;;;;22.37;14.30;;;;;;;4.60;86.26;101152.81;5037307;28;20583;-65
2020/12/16 08:35:29;;;;;;;17.60;11.80;;;;;;;4.61;86.75;101151.91;5039032;28;20218;-65
2020/12/16 08:38:00;;;;;;;18.40;12.57;;;;;;;4.58;86.72;101154.63;5044830;28;20245;-66
2020/12/16 08:40:27;;;;;;;16.27;12.17;;;;;;;4.55;86.45;101154.72;5046561;28;21295;-66
2020/12/16 08:42:53;;;;;;;16.83;13.00;;;;;;;4.54;86.36;101142.44;5045164;28;20225;-65
2020/12/16 08:45:21;;;;;;;18.50;13.77;;;;;;;4.55;86.71;101141.53;5045758;28;20206;-65
2020/12/16 08:47:48;;;;;;;19.30;14.13;;;;;;;4.59;86.58;101132.63;5036610;28;20642;-65
2020/12/16 08:50:18;;;;;;;18.67;14.20;;;;;;;4.63;86.65;101144.81;5036679;28;20206;-66
2020/12/16 08:52:46;;;;;;;23.57;16.67;;;;;;;4.69;86.93;101144.59;5064582;22;20236;-64
2020/12/16 08:55:19;;;;;;;25.87;17.70;;;;;;;4.73;86.53;101146.25;5064652;28;20206;-67
2020/12/16 08:57:56;;;;;;;38.20;20.50;;;;;;;4.82;87.11;101147.75;5062328;28;20225;-67
2020/12/16 09:00:30;;;;;;;35.50;20.97;;;;;;;4.89;87.20;101144.84;5059514;28;20208;-67
2020/12/16 09:03:06;;;;;;;35.07;19.67;;;;;;;4.99;87.01;101141.94;5053404;28;20229;-64
2020/12/16 09:05:33;;;;;;;39.30;21.07;;;;;;;5.06;87.32;101146.06;5051594;28;20204;-67
2020/12/16 09:08:13;;;;;;;41.60;21.83;;;;;;;5.14;87.32;101146.69;5064325;28;20197;-67
2020/12/16 09:10:41;;;;;;;38.17;21.50;;;;;;;5.22;87.13;101153.44;5059418;28;20198;-67
2020/12/16 09:13:09;;;;;;;42.80;22.23;;;;;;;5.31;87.49;101159.34;5056694;28;20232;-66
2020/12/16 09:15:36;;;;;;;46.77;23.30;;;;;;;5.38;87.66;101156.41;5056435;28;20209;-67
2020/12/16 09:18:03;;;;;;;52.20;24.57;;;;;;;5.46;87.63;101156.19;5054963;28;20221;-66
2020/12/16 09:20:30;;;;;;;58.83;26.00;;;;;;;5.55;87.60;101159.34;5057093;28;20201;-67
2020/12/16 09:22:56;;;;;;;59.60;26.67;;;;;;;5.67;87.98;101165.16;5061536;28;20232;-66
2020/12/16 09:25:23;;;;;;;72.43;29.77;;;;;;;5.78;88.29;101163.84;5061192;28;20209;-66
2020/12/16 09:27:50;;;;;;;74.03;30.50;;;;;;;5.91;88.21;101166.97;5059900;28;20258;-66
2020/12/16 09:30:25;;;;;;;77.70;32.17;;;;;;;6.05;88.57;101169.09;5066262;28;20575;-64
2020/12/16 09:32:51;;;;;;;79.17;32.60;;;;;;;6.17;88.96;101172.16;5063066;28;20223;-64
2020/12/16 09:35:18;;;;;;;85.40;33.13;;;;;;;6.27;89.00;101165.59;5058433;28;20208;-64
2020/12/16 09:37:44;;;;;;;84.77;33.50;;;;;;;6.39;89.20;101168.72;5059302;28;20239;-64
2020/12/16 09:40:12;;;;;;;78.67;32.87;;;;;;;6.50;89.05;101158.56;5060518;28;20650;-66
2020/12/16 09:42:38;;;;;;;85.63;35.03;;;;;;;6.61;88.94;101166.97;5060001;28;20248;-67
2020/12/16 09:45:09;;;;;;;86.47;34.53;;;;;;;6.72;89.93;101155.97;5064024;28;20215;-66
2020/12/16 09:47:42;;;;;;;74.40;33.20;;;;;;;6.82;89.58;101158.16;5068917;28;20196;-67
2020/12/16 09:50:08;;;;;;;82.33;34.23;;;;;;;6.93;89.02;101160.41;5067420;28;20213;-67
2020/12/16 09:52:36;;;;;;;73.37;32.57;;;;;;;7.05;89.64;101166.97;5051037;28;20245;-67
2020/12/16 09:55:14;;;;;;;65.07;32.43;;;;;;;7.18;90.20;101160.25;5053206;28;20211;-66
2020/12/16 09:57:40;;;;;;;66.00;31.73;;;;;;;7.31;90.22;101161.50;5057005;28;20234;-66
2020/12/16 10:00:07;;;;;;;56.03;28.20;;;;;;;7.44;90.17;101154.75;5056319;28;20212;-66
2020/12/16 10:02:33;;;;;;;49.80;26.60;;;;;;;7.56;90.63;101151.56;5061296;28;20244;-67
2020/12/16 10:04:59;;;;;;;44.53;24.90;;;;;;;7.69;90.24;101149.25;5056145;28;20662;-67
2020/12/16 10:07:25;;;;;;;40.23;24.53;;;;;;;7.80;89.68;101146.13;5056644;28;20213;-65
2020/12/16 10:09:55;;;;;;;39.43;22.47;;;;;;;7.90;89.78;101142.13;5055341;28;20212;-66
2020/12/16 10:12:28;;;;;;;37.57;23.03;;;;;;;7.98;90.30;101147.97;5060586;28;20263;-67
2020/12/16 10:14:54;;;;;;;34.27;20.80;;;;;;;8.05;89.60;101156.53;5062745;28;20724;-67
2020/12/16 10:17:21;;;;;;;30.70;19.10;;;;;;;8.10;89.29;101160.66;5069570;28;20655;-66
2020/12/16 10:19:48;;;;;;;27.17;18.23;;;;;;;8.15;89.31;101161.34;5069803;28;20200;-67
2020/12/16 10:22:14;;;;;;;26.70;17.93;;;;;;;8.20;88.90;101156.69;5070629;28;20225;-65
2020/12/16 10:24:40;;;;;;;27.37;18.27;;;;;;;8.24;89.26;101158.25;5067100;28;20669;-65
2020/12/16 10:27:07;;;;;;;24.30;17.57;;;;;;;8.28;89.25;101159.84;5065421;28;20695;-65
2020/12/16 10:29:33;;;;;;;23.37;16.80;;;;;;;8.31;89.28;101159.69;5066463;28;20548;-65
2020/12/16 10:31:59;;;;;;;23.90;16.93;;;;;;;8.33;88.88;101157.88;5070352;28;20217;-65
2020/12/16 10:34:25;;;;;;;24.47;17.07;;;;;;;8.36;88.53;101154.22;5070561;28;20207;-65
2020/12/16 10:36:52;;;;;;;25.87;17.20;;;;;;;8.38;89.15;101160.31;5069508;28;20216;-65
2020/12/16 10:39:18;;;;;;;24.73;17.33;;;;;;;8.43;88.52;101154.78;5070937;28;20319;-65
2020/12/16 10:41:49;;;;;;;22.20;16.50;;;;;;;8.45;88.78;101145.81;5062823;28;20261;-65
2020/12/16 10:44:16;;;;;;;24.63;16.97;;;;;;;8.50;88.06;101145.63;5067101;28;20217;-65
2020/12/16 10:46:44;;;;;;;21.47;16.73;;;;;;;8.53;88.23;101150.78;5065137;28;20205;-65
2020/12/16 10:49:10;;;;;;;20.37;15.37;;;;;;;8.56;88.49;101145.34;5062837;28;20637;-65
2020/12/16 10:51:36;;;;;;;17.83;14.27;;;;;;;8.60;88.19;101149.53;5056506;28;20225;-66
2020/12/16 10:54:02;;;;;;;19.87;14.57;;;;;;;8.62;88.02;101145.88;5063474;28;20200;-66
2020/12/16 10:56:29;;;;;;;19.47;14.07;;;;;;;8.66;87.27;101146.59;5069373;28;20262;-65
2020/12/16 10:58:56;;;;;;;17.97;13.33;;;;;;;8.68;87.96;101150.06;5065417;28;20252;-66
2020/12/16 11:04:08;;;;;;;17.77;13.90;;;;;;;8.76;87.45;101152.34;5062972;28;20201;-65
2020/12/16 11:06:35;;;;;;;19.00;14.07;;;;;;;8.80;87.23;101140.63;5062484;28;20382;-66
2020/12/16 11:09:01;;;;;;;17.30;13.57;;;;;;;8.82;86.74;101144.94;5057571;28;20668;-66
2020/12/16 11:11:27;;;;;;;17.10;13.40;;;;;;;8.87;86.95;101139.41;5061540;28;20207;-65
2020/12/16 11:13:53;;;;;;;17.43;13.87;;;;;;;8.91;86.58;101133.88;5058931;28;20205;-65
2020/12/16 11:16:26;;;;;;;17.00;12.97;;;;;;;8.97;86.19;101138.00;5057527;28;20201;-66
2020/12/16 11:18:54;;;;;;;16.50;13.07;;;;;;;9.01;86.45;101147.56;5056137;28;20225;-65
2020/12/16 11:21:20;;;;;;;16.93;12.67;;;;;;;9.04;85.95;101137.66;5061415;28;20201;-66
2020/12/16 11:23:46;;;;;;;16.90;12.87;;;;;;;9.08;85.56;101140.16;5056280;28;20678;-66